createdAt,value
2022-09-16T00:01:50.756Z,100169.50
2022-09-16T00:05:54.859Z,100168.28
2022-09-16T00:09:57.713Z,100160.91
2022-09-16T00:14:02.175Z,100166.88
2022-09-16T00:18:05.124Z,100170.69
2022-09-16T00:22:08.013Z,100170.69
2022-09-16T00:26:10.708Z,100166.38
2022-09-16T00:30:14.970Z,100175.97
2022-09-16T00:34:17.765Z,100169.66
2022-09-16T00:38:20.782Z,100180.06
2022-09-16T00:42:23.594Z,100181.22
2022-09-16T00:46:37.009Z,100173.00
2022-09-16T00:50:44.793Z,100167.41
2022-09-16T00:54:48.375Z,100171.16
2022-09-16T00:58:56.279Z,100169.13
2022-09-16T01:03:00.384Z,100169.28
2022-09-16T01:07:03.241Z,100165.81
2022-09-16T01:11:06.378Z,100170.47
2022-09-16T01:15:11.091Z,100168.88
2022-09-16T01:19:31.181Z,100165.19
2022-09-16T01:24:05.339Z,100158.50
2022-09-16T01:28:39.214Z,100166.63
2022-09-16T01:32:55.179Z,100165.94
2022-09-16T01:37:06.236Z,100177.13
2022-09-16T01:41:17.173Z,100170.69
2022-09-16T01:45:28.459Z,100172.22
2022-09-16T01:49:43.506Z,100174.50
2022-09-16T01:53:53.892Z,100174.09
2022-09-16T01:58:02.799Z,100168.88
2022-09-16T02:02:12.258Z,100170.03
2022-09-16T02:06:22.039Z,100159.63
2022-09-16T02:10:29.322Z,100159.47
2022-09-16T02:14:34.758Z,100149.44
2022-09-16T02:18:42.142Z,100143.66
2022-09-16T02:22:49.648Z,100144.44
2022-09-16T02:26:55.525Z,100140.72
2022-09-16T02:31:01.469Z,100137.53
2022-09-16T02:35:06.547Z,100153.22
2022-09-16T02:39:15.890Z,100158.50
2022-09-16T02:43:18.971Z,100160.03
2022-09-16T02:47:30.509Z,100155.16
2022-09-16T02:51:43.692Z,100161.38
2022-09-16T02:55:54.707Z,100152.66
2022-09-16T02:59:58.135Z,100152.81
2022-09-16T03:04:00.849Z,100156.63
2022-09-16T03:08:06.894Z,100153.28
2022-09-16T03:12:23.907Z,100150.03
2022-09-16T03:16:37.723Z,100138.09
2022-09-16T03:20:52.271Z,100146.31
2022-09-16T03:25:06.386Z,100135.66
2022-09-16T03:29:19.137Z,100135.56
2022-09-16T03:33:28.391Z,100130.53
2022-09-16T03:37:34.573Z,100117.09
2022-09-16T03:41:38.022Z,100115.56
2022-09-16T03:45:43.035Z,100114.94
2022-09-16T03:49:45.710Z,100117.09
2022-09-16T03:53:48.563Z,100116.44
2022-09-16T03:57:51.276Z,100115.84
2022-09-16T04:01:56.260Z,100114.00
2022-09-16T04:05:59.638Z,100113.81
2022-09-16T04:10:02.861Z,100095.44
2022-09-16T04:14:05.903Z,100088.16
2022-09-16T04:18:09.993Z,100076.88
2022-09-16T04:22:12.718Z,100079.75
2022-09-16T04:26:15.873Z,100070.00
2022-09-16T04:30:20.494Z,100071.44
2022-09-16T04:34:24.744Z,100084.31
2022-09-16T04:38:27.730Z,100083.09
2022-09-16T04:42:30.489Z,100087.97
2022-09-16T04:46:33.812Z,100095.00
2022-09-16T04:50:38.018Z,100095.47
2022-09-16T04:54:40.846Z,100096.28
2022-09-16T04:58:44.440Z,100087.84
2022-09-16T05:02:47.380Z,100079.63
2022-09-16T05:06:51.541Z,100088.31
2022-09-16T05:10:54.309Z,100083.78
2022-09-16T05:14:57.054Z,100087.75
2022-09-16T05:19:05.182Z,100098.34
2022-09-16T05:23:10.403Z,100084.78
2022-09-16T05:27:13.408Z,100099.09
2022-09-16T05:31:18.115Z,100088.72
2022-09-16T05:35:20.916Z,100096.34
2022-09-16T05:39:26.284Z,100094.44
2022-09-16T05:43:30.989Z,100095.28
2022-09-16T05:47:33.834Z,100097.41
2022-09-16T05:51:38.413Z,100096.22
2022-09-16T05:55:42.608Z,100113.03
2022-09-16T05:59:45.360Z,100112.66
2022-09-16T06:03:49.757Z,100105.97
2022-09-16T06:07:52.607Z,100114.03
2022-09-16T06:12:01.642Z,100102.69
2022-09-16T06:16:06.817Z,100111.44
2022-09-16T06:20:14.224Z,100120.56
2022-09-16T06:24:18.754Z,100102.06
2022-09-16T06:28:23.043Z,100099.25
2022-09-16T06:32:25.912Z,100099.06
2022-09-16T06:36:30.953Z,100104.06
2022-09-16T06:40:33.829Z,100097.63
2022-09-16T06:44:37.916Z,100104.09
2022-09-16T06:48:42.403Z,100109.34
2022-09-16T06:52:45.246Z,100103.13
2022-09-16T06:56:48.026Z,100103.75
2022-09-16T07:00:52.329Z,100103.66
2022-09-16T07:04:55.259Z,100094.69
2022-09-16T07:08:58.259Z,100108.34
2022-09-16T07:13:01.107Z,100100.22
2022-09-16T07:17:05.853Z,100111.69
2022-09-16T07:21:11.132Z,100104.50
2022-09-16T07:25:13.981Z,100106.41
2022-09-16T07:29:18.510Z,100112.03
2022-09-16T07:33:22.723Z,100108.66
2022-09-16T07:37:25.664Z,100114.81
2022-09-16T07:41:30.348Z,100103.19
2022-09-16T07:45:33.589Z,100102.34
2022-09-16T07:49:37.855Z,100103.47
2022-09-16T07:53:41.080Z,100108.78
2022-09-16T07:57:43.915Z,100103.97
2022-09-16T08:01:47.324Z,100106.97
2022-09-16T08:05:51.836Z,100105.22
2022-09-16T08:09:54.678Z,100105.69
2022-09-16T08:13:59.781Z,100108.66
2022-09-16T08:18:03.142Z,100105.19
2022-09-16T08:22:07.218Z,100089.59
2022-09-16T08:26:11.686Z,100082.53
2022-09-16T08:30:15.893Z,100072.16
2022-09-16T08:34:19.622Z,100074.72
2022-09-16T08:38:23.908Z,100094.63
2022-09-16T08:42:35.719Z,100110.63
2022-09-16T08:46:47.605Z,100106.41
2022-09-16T08:50:51.383Z,100123.03
2022-09-16T08:54:59.639Z,100129.94
2022-09-16T08:59:04.691Z,100120.19
2022-09-16T09:03:17.725Z,100120.50
2022-09-16T09:07:33.958Z,100107.75
2022-09-16T09:11:46.406Z,100115.53
2022-09-16T09:15:58.543Z,100111.56
2022-09-16T09:20:09.478Z,100111.84
2022-09-16T09:24:36.459Z,100114.28
2022-09-16T09:28:54.495Z,100114.34
2022-09-16T09:33:28.021Z,100112.09
2022-09-16T09:37:49.199Z,100098.75
2022-09-16T09:41:55.911Z,100101.31
2022-09-16T09:46:04.520Z,100099.38
2022-09-16T09:50:17.476Z,100094.78
2022-09-16T09:54:29.852Z,100084.38
2022-09-16T09:58:37.460Z,100094.50
2022-09-16T10:02:48.868Z,100085.63
2022-09-16T10:06:56.012Z,100093.34
2022-09-16T10:11:00.899Z,100084.47
2022-09-16T10:15:04.529Z,100088.16
2022-09-16T10:19:18.394Z,100092.47
2022-09-16T10:23:29.753Z,100099.78
2022-09-16T10:27:36.208Z,100083.78
2022-09-16T10:31:42.694Z,100076.47
2022-09-16T10:35:57.089Z,100073.69
2022-09-16T10:39:59.939Z,100071.09
2022-09-16T10:44:05.197Z,100067.00
2022-09-16T10:48:14.206Z,100058.19
2022-09-16T10:52:20.334Z,100055.59
2022-09-16T10:56:26.471Z,100032.53
2022-09-16T11:00:36.946Z,100052.00
2022-09-16T11:04:57.110Z,100066.59
2022-09-16T11:09:11.701Z,100048.19
2022-09-16T11:13:28.823Z,100060.22
2022-09-16T11:17:45.686Z,100076.97
2022-09-16T11:22:02.853Z,100061.78
2022-09-16T11:26:14.868Z,100091.63
2022-09-16T11:30:20.337Z,100142.13
2022-09-16T11:34:39.577Z,100169.19
2022-09-16T11:38:51.079Z,100189.28
2022-09-16T11:43:02.849Z,100209.88
2022-09-16T11:47:18.186Z,100231.88
2022-09-16T11:51:31.712Z,100251.31
2022-09-16T11:55:47.451Z,100245.91
2022-09-16T11:59:56.549Z,100241.97
2022-09-16T12:04:06.252Z,100236.78
2022-09-16T12:08:22.832Z,100246.75
2022-09-16T12:12:33.247Z,100238.09
2022-09-16T12:16:41.976Z,100234.22
2022-09-16T12:20:48.260Z,100239.03
2022-09-16T12:24:59.550Z,100243.84
2022-09-16T12:29:08.182Z,100252.31
2022-09-16T12:33:18.458Z,100248.34
2022-09-16T12:37:35.527Z,100239.47
2022-09-16T12:41:56.623Z,100229.03
2022-09-16T12:46:23.301Z,100223.09
2022-09-16T12:50:51.307Z,100233.03
2022-09-16T12:55:38.184Z,100238.06
2022-09-16T13:00:06.683Z,100224.63
2022-09-16T13:04:15.686Z,100213.19
2022-09-16T13:08:25.148Z,100189.34
2022-09-16T13:12:41.031Z,100176.47
2022-09-16T13:16:54.768Z,100178.13
2022-09-16T13:21:03.934Z,100168.09
2022-09-16T13:25:21.618Z,100161.69
2022-09-16T13:29:39.592Z,100157.84
2022-09-16T13:33:44.116Z,100149.59
2022-09-16T13:37:47.765Z,100164.84
2022-09-16T13:41:51.896Z,100228.63
2022-09-16T13:46:03.385Z,100263.28
2022-09-16T13:50:13.693Z,100236.59
2022-09-16T13:54:27.909Z,100227.28
2022-09-16T13:58:38.393Z,100228.03
2022-09-16T14:03:02.658Z,100224.44
2022-09-16T14:07:21.949Z,100243.69
2022-09-16T14:11:33.537Z,100246.81
2022-09-16T14:15:42.333Z,100231.78
2022-09-16T14:19:48.323Z,100217.16
2022-09-16T14:23:51.347Z,100212.41
2022-09-16T14:27:55.421Z,100206.91
2022-09-16T14:32:00.250Z,100183.72
2022-09-16T14:36:11.882Z,100197.94
2022-09-16T14:40:16.749Z,100203.69
2022-09-16T14:44:25.965Z,100205.28
2022-09-16T14:48:34.975Z,100205.94
2022-09-16T14:52:37.841Z,100205.81
2022-09-16T14:56:40.708Z,100215.75
2022-09-16T15:00:48.199Z,100220.31
2022-09-16T15:04:57.318Z,100206.78
2022-09-16T15:09:04.375Z,100202.88
2022-09-16T15:13:12.068Z,100199.06
2022-09-16T15:17:20.127Z,100192.66
2022-09-16T15:21:27.978Z,100180.63
2022-09-16T15:25:34.418Z,100146.81
2022-09-16T15:29:49.409Z,100130.34
2022-09-16T15:33:53.878Z,100104.63
2022-09-16T15:37:58.055Z,100101.34
2022-09-16T15:42:11.340Z,100098.50
2022-09-16T15:46:18.250Z,100097.25
2022-09-16T15:50:23.479Z,100096.28
2022-09-16T15:54:32.526Z,100095.41
2022-09-16T15:58:42.042Z,100106.22
2022-09-16T16:02:49.612Z,100115.41
2022-09-16T16:06:55.907Z,100115.53
2022-09-16T16:11:09.668Z,100115.41
2022-09-16T16:15:12.950Z,100119.91
2022-09-16T16:19:15.976Z,100122.53
2022-09-16T16:23:20.051Z,100132.34
2022-09-16T16:27:24.227Z,100115.91
2022-09-16T16:31:27.017Z,100126.22
2022-09-16T16:35:29.971Z,100133.59
2022-09-16T16:39:33.154Z,100131.63
2022-09-16T16:43:37.478Z,100141.53
2022-09-16T16:47:40.436Z,100139.38
2022-09-16T16:51:43.255Z,100139.31
2022-09-16T16:55:46.021Z,100150.66
2022-09-16T16:59:50.259Z,100150.00
2022-09-16T17:03:53.435Z,100163.47
2022-09-16T17:07:56.445Z,100177.50
2022-09-16T17:12:00.652Z,100204.47
2022-09-16T17:16:05.208Z,100213.09
2022-09-16T17:20:09.284Z,100206.75
2022-09-16T17:24:12.734Z,100228.63
2022-09-16T17:28:15.563Z,100229.75
2022-09-16T17:32:19.890Z,100220.63
2022-09-16T17:36:24.561Z,100216.31
2022-09-16T17:40:27.895Z,100230.66
2022-09-16T17:44:30.719Z,100222.75
2022-09-16T17:48:36.420Z,100231.28
2022-09-16T17:52:39.237Z,100220.56
2022-09-16T17:56:42.908Z,100227.81
2022-09-16T18:00:46.164Z,100225.97
2022-09-16T18:04:50.398Z,100240.34
2022-09-16T18:08:53.831Z,100231.44
2022-09-16T18:12:58.145Z,100234.66
2022-09-16T18:17:01.133Z,100235.56
2022-09-16T18:21:06.443Z,100235.97
2022-09-16T18:25:10.276Z,100248.09
2022-09-16T18:29:14.384Z,100251.03
2022-09-16T18:33:17.057Z,100264.41
2022-09-16T18:37:21.283Z,100258.59
2022-09-16T18:41:25.527Z,100267.09
2022-09-16T18:45:28.629Z,100267.78
2022-09-16T18:49:31.415Z,100265.91
2022-09-16T18:53:35.685Z,100257.81
2022-09-16T18:57:38.398Z,100260.16
2022-09-16T19:01:42.552Z,100270.50
2022-09-16T19:05:56.011Z,100264.22
2022-09-16T19:10:00.103Z,100272.25
2022-09-16T19:14:03.181Z,100278.00
2022-09-16T19:18:06.115Z,100280.16
2022-09-16T19:22:08.952Z,100278.06
2022-09-16T19:26:13.600Z,100283.97
2022-09-16T19:30:16.986Z,100282.31
2022-09-16T19:34:20.723Z,100276.84
2022-09-16T19:38:23.949Z,100277.28
2022-09-16T19:42:28.286Z,100274.34
2022-09-16T19:46:34.409Z,100277.94
2022-09-16T19:50:37.127Z,100288.72
2022-09-16T19:54:39.885Z,100297.16
2022-09-16T19:58:44.099Z,100291.28
2022-09-16T20:02:46.898Z,100295.13
2022-09-16T20:06:50.298Z,100309.00
2022-09-16T20:10:53.013Z,100298.06
2022-09-16T20:14:57.195Z,100305.25
2022-09-16T20:19:00.086Z,100306.09
2022-09-16T20:23:02.775Z,100306.50
2022-09-16T20:27:05.770Z,100310.28
2022-09-16T20:31:11.113Z,100316.19
2022-09-16T20:35:14.166Z,100322.50
2022-09-16T20:39:17.161Z,100326.28
2022-09-16T20:43:20.037Z,100326.09
2022-09-16T20:47:26.941Z,100337.22
2022-09-16T20:51:32.289Z,100333.00
2022-09-16T20:55:35.138Z,100341.00
2022-09-16T20:59:38.100Z,100338.94
2022-09-16T21:03:43.260Z,100354.94
2022-09-16T21:07:45.941Z,100362.47
2022-09-16T21:11:49.610Z,100358.25
2022-09-16T21:15:56.555Z,100363.72
2022-09-16T21:20:00.659Z,100359.31
2022-09-16T21:24:03.795Z,100365.00
2022-09-16T21:28:08.722Z,100371.31
2022-09-16T21:32:11.563Z,100376.34
2022-09-16T21:36:15.654Z,100364.16
2022-09-16T21:40:18.553Z,100374.47
2022-09-16T21:44:21.544Z,100365.84
2022-09-16T21:48:25.351Z,100374.66
2022-09-16T21:52:29.569Z,100374.66
2022-09-16T21:56:32.682Z,100363.34
2022-09-16T22:00:35.788Z,100368.38
2022-09-16T22:04:38.712Z,100359.31
2022-09-16T22:08:48.733Z,100375.72
2022-09-16T22:12:52.068Z,100364.59
2022-09-16T22:16:54.919Z,100366.47
2022-09-16T22:21:03.278Z,100366.69
2022-09-16T22:25:08.256Z,100361.00
2022-09-16T22:29:12.651Z,100366.69
2022-09-16T22:33:15.387Z,100366.69
2022-09-16T22:37:18.302Z,100358.72
2022-09-16T22:41:22.988Z,100349.88
2022-09-16T22:45:25.971Z,100353.88
2022-09-16T22:49:28.846Z,100359.56
2022-09-16T22:53:33.286Z,100355.34
2022-09-16T22:57:37.372Z,100359.53
2022-09-16T23:01:41.182Z,100361.22
2022-09-16T23:05:44.077Z,100357.47
2022-09-16T23:09:47.251Z,100365.44
2022-09-16T23:13:52.993Z,100365.00
2022-09-16T23:17:55.685Z,100379.72
2022-09-16T23:21:58.495Z,100381.59
2022-09-16T23:26:03.071Z,100374.47
2022-09-16T23:30:08.512Z,100372.56
2022-09-16T23:34:14.095Z,100374.28
2022-09-16T23:38:16.828Z,100364.59
2022-09-16T23:42:19.750Z,100369.00
2022-09-16T23:46:25.751Z,100365.22
2022-09-16T23:50:28.720Z,100359.09
2022-09-16T23:54:31.620Z,100370.47
2022-09-16T23:58:34.629Z,100370.47
